Saint Paul, Arkansas
Current Conditions -  °F | °C
As of 2:53 PM on Thursday 18 Dec 2014 (Local Time) from KFYV Reporting Station
Overcast Overcast  
Wind Chill: 40°   Ceiling: 1100
Heat Index: 40°   Visibility: 10mi
Dew Point: 38°   Wind: 0mph
Humidity: 93%   Direction: NA
Pressure: 30.14"   Gusts: NA
Location:  35.82°N, 93.76°W
Report Text: KFYV 182053Z 00000KT 10SM OVC011 04/03 A3014 RMK AO2 CIG 009V013 SLP212 T00440033 56011
Loading
Personal Weather Stations






























Interactive Weather Map New forecast layout! Learn more

10-Day Weather Forecast

Advertisements
Track Severe Weather on mobile